Time;durP1;ratioP1;P1;durP2;ratioP2;P2;SDS_P1;SDS_P2;PMS_P1;PMS_P2;Temp;Humidity;BMP_temperature;BMP_pressure;BME280_temperature;BME280_humidity;BME280_pressure;Samples;Min_cycle;Max_cycle;Signal;HPM_P1;HPM_P2
2023/04/20 00:03:28;;;;;;;9.70;3.15;;;;;;;;;;10322992;28;20026;-53
2023/04/20 00:08:29;;;;;;;5.07;2.60;;;;;;;;;;10324029;28;20027;-54
2023/04/20 00:13:29;;;;;;;4.57;2.65;;;;;;;;;;10321262;28;20022;-56
2023/04/20 00:18:30;;;;;;;3.97;2.50;;;;;;;;;;10323028;28;20027;-53
2023/04/20 00:23:31;;;;;;;2.55;2.20;;;;;;;;;;10325203;28;20027;-53
2023/04/20 00:28:31;;;;;;;4.22;2.67;;;;;;;;;;10321688;28;20023;-52
2023/04/20 00:33:32;;;;;;;3.83;2.20;;;;;;;;;;10308992;28;20483;-53
2023/04/20 00:38:32;;;;;;;8.18;2.40;;;;;;;;;;10313425;28;20022;-53
2023/04/20 00:43:33;;;;;;;2.45;2.20;;;;;;;;;;10314062;28;20052;-54
2023/04/20 00:48:33;;;;;;;4.40;2.42;;;;;;;;;;10309353;28;20378;-52
2023/04/20 00:53:35;;;;;;;3.03;2.33;;;;;;;;;;10317403;28;20482;-54
2023/04/20 00:58:36;;;;;;;3.30;2.65;;;;;;;;;;10323384;28;20475;-54
2023/04/20 01:03:38;;;;;;;3.28;2.10;;;;;;;;;;10327500;28;20026;-52
2023/04/20 01:08:48;;;;;;;3.03;2.17;;;;;;;;;;10329759;28;20030;-52
2023/04/20 01:13:49;;;;;;;2.40;1.95;;;;;;;;;;10326819;28;20475;-52
2023/04/20 01:18:50;;;;;;;2.38;2.00;;;;;;;;;;10328544;28;20041;-52
2023/04/20 01:23:50;;;;;;;2.92;1.80;;;;;;;;;;10309658;28;20105;-52
2023/04/20 01:28:51;;;;;;;4.55;2.08;;;;;;;;;;10315902;28;20042;-55
2023/04/20 01:33:51;;;;;;;2.33;2.13;;;;;;;;;;10318934;28;20489;-53
2023/04/20 01:38:52;;;;;;;2.83;2.13;;;;;;;;;;10318980;28;20042;-53
2023/04/20 01:43:53;;;;;;;2.13;1.90;;;;;;;;;;10309877;28;20037;-52
2023/04/20 01:48:53;;;;;;;2.40;2.17;;;;;;;;;;10325489;28;20019;-52
2023/04/20 01:53:54;;;;;;;2.17;1.98;;;;;;;;;;10327770;28;20049;-53
2023/04/20 01:58:55;;;;;;;3.10;2.22;;;;;;;;;;10326783;28;20278;-53
2023/04/20 02:03:55;;;;;;;2.90;1.90;;;;;;;;;;10327034;28;20466;-54
2023/04/20 02:08:56;;;;;;;4.40;2.03;;;;;;;;;;10326290;28;20474;-53
2023/04/20 02:13:57;;;;;;;2.03;1.83;;;;;;;;;;10327513;28;20480;-53
2023/04/20 02:18:57;;;;;;;2.17;1.98;;;;;;;;;;10322360;28;20022;-53
2023/04/20 02:23:58;;;;;;;2.13;1.88;;;;;;;;;;10324318;28;20097;-53
2023/04/20 02:28:58;;;;;;;2.67;2.00;;;;;;;;;;10326507;28;20394;-53
2023/04/20 02:33:59;;;;;;;4.00;1.80;;;;;;;;;;10318039;28;20089;-53
2023/04/20 02:39:00;;;;;;;2.00;1.73;;;;;;;;;;10318085;28;20088;-54
2023/04/20 02:44:00;;;;;;;2.05;1.80;;;;;;;;;;10323970;28;20042;-53
2023/04/20 02:49:02;;;;;;;2.10;1.90;;;;;;;;;;10324087;28;20034;-53
2023/04/20 02:54:03;;;;;;;2.47;1.75;;;;;;;;;;10324400;28;20393;-52
2023/04/20 02:59:03;;;;;;;3.42;1.83;;;;;;;;;;10320775;28;20026;-53
2023/04/20 03:04:04;;;;;;;2.75;1.95;;;;;;;;;;10314359;28;20049;-54
2023/04/20 03:09:07;;;;;;;1.95;1.73;;;;;;;;;;10322317;28;20049;-53
2023/04/20 03:14:08;;;;;;;2.45;1.80;;;;;;;;;;10319669;28;20073;-54
2023/04/20 03:19:08;;;;;;;2.38;1.80;;;;;;;;;;10324787;28;20060;-53
2023/04/20 03:24:09;;;;;;;1.83;1.73;;;;;;;;;;10313823;28;20034;-52
2023/04/20 03:29:09;;;;;;;2.08;1.88;;;;;;;;;;10302573;28;20031;-53
2023/04/20 03:34:10;;;;;;;4.85;1.88;;;;;;;;;;10322205;28;20026;-53
2023/04/20 03:39:11;;;;;;;1.58;1.48;;;;;;;;;;10311193;28;20089;-51
2023/04/20 03:44:12;;;;;;;1.80;1.70;;;;;;;;;;10310174;28;20026;-52
2023/04/20 03:49:13;;;;;;;2.45;2.00;;;;;;;;;;10312701;28;20049;-52
2023/04/20 03:54:14;;;;;;;2.90;1.95;;;;;;;;;;10328479;28;20050;-53
2023/04/20 03:59:14;;;;;;;2.88;1.60;;;;;;;;;;10329278;28;20050;-53
2023/04/20 04:04:15;;;;;;;2.10;1.88;;;;;;;;;;10328060;28;20390;-53
2023/04/20 04:09:16;;;;;;;2.20;2.00;;;;;;;;;;10329704;28;20548;-52
2023/04/20 04:14:16;;;;;;;2.13;1.80;;;;;;;;;;10327754;28;20042;-53
2023/04/20 04:19:17;;;;;;;10.02;1.80;;;;;;;;;;10322421;28;20031;-52
2023/04/20 04:24:17;;;;;;;2.67;1.50;;;;;;;;;;10327802;28;20057;-54
2023/04/20 04:29:18;;;;;;;5.07;1.90;;;;;;;;;;10330665;28;20022;-52
2023/04/20 04:34:19;;;;;;;2.33;1.50;;;;;;;;;;10330364;28;20029;-53
2023/04/20 04:39:20;;;;;;;1.80;1.70;;;;;;;;;;10321440;28;20209;-54
2023/04/20 04:44:21;;;;;;;1.90;1.63;;;;;;;;;;10325098;28;20027;-54
2023/04/20 04:49:23;;;;;;;1.58;1.48;;;;;;;;;;10329655;28;20019;-55
2023/04/20 04:54:24;;;;;;;1.50;1.40;;;;;;;;;;10317942;28;20042;-53
2023/04/20 04:59:25;;;;;;;1.80;1.70;;;;;;;;;;10313947;28;20488;-54
2023/04/20 05:04:25;;;;;;;2.33;1.70;;;;;;;;;;10327084;28;20019;-52
2023/04/20 05:09:32;;;;;;;3.22;1.63;;;;;;;;;;10329258;28;20439;-52
2023/04/20 05:14:33;;;;;;;1.98;1.70;;;;;;;;;;10325827;28;20529;-56
2023/04/20 05:19:33;;;;;;;1.75;1.50;;;;;;;;;;10327134;28;20018;-57
2023/04/20 05:24:34;;;;;;;1.77;1.65;;;;;;;;;;10322463;28;20483;-54
2023/04/20 05:29:35;;;;;;;1.95;1.85;;;;;;;;;;10328402;28;20022;-54
2023/04/20 05:34:35;;;;;;;2.58;1.85;;;;;;;;;;10327323;28;20030;-56
2023/04/20 05:39:36;;;;;;;6.32;2.20;;;;;;;;;;10316728;28;20026;-55
2023/04/20 05:44:38;;;;;;;4.43;1.90;;;;;;;;;;10317809;28;20026;-54
2023/04/20 05:49:39;;;;;;;5.18;1.90;;;;;;;;;;10323500;28;20026;-53
2023/04/20 05:54:40;;;;;;;18.58;2.55;;;;;;;;;;10318573;28;20189;-56
2023/04/20 05:59:40;;;;;;;11.65;2.58;;;;;;;;;;10325814;28;20042;-52
2023/04/20 06:04:41;;;;;;;23.27;3.00;;;;;;;;;;10324228;28;20046;-58
2023/04/20 06:09:42;;;;;;;8.45;2.13;;;;;;;;;;10316802;28;20026;-56
2023/04/20 06:14:42;;;;;;;14.75;2.40;;;;;;;;;;10325456;28;20150;-52
2023/04/20 06:19:43;;;;;;;8.02;1.80;;;;;;;;;;10324122;28;20037;-53
2023/04/20 06:24:43;;;;;;;10.73;2.33;;;;;;;;;;10325364;28;20069;-50
2023/04/20 06:29:44;;;;;;;6.88;2.40;;;;;;;;;;10324190;28;20534;-52
2023/04/20 06:34:46;;;;;;;29.92;2.60;;;;;;;;;;10324907;28;20033;-50
2023/04/20 06:39:47;;;;;;;11.27;2.47;;;;;;;;;;10326092;28;20066;-50
2023/04/20 06:44:47;;;;;;;11.65;2.20;;;;;;;;;;10312200;28;20030;-49
2023/04/20 06:49:48;;;;;;;11.90;2.05;;;;;;;;;;10323453;28;20030;-51
2023/04/20 06:54:48;;;;;;;3.67;1.98;;;;;;;;;;10324763;28;20507;-50
2023/04/20 06:59:49;;;;;;;5.15;1.80;;;;;;;;;;10324993;28;20031;-51
2023/04/20 07:04:49;;;;;;;4.70;1.77;;;;;;;;;;10320442;28;20059;-52
2023/04/20 07:09:50;;;;;;;8.57;2.15;;;;;;;;;;10326798;28;20057;-51
2023/04/20 07:14:51;;;;;;;6.28;2.20;;;;;;;;;;10319058;28;20030;-51
2023/04/20 07:19:51;;;;;;;4.32;1.83;;;;;;;;;;10313990;28;20029;-51
2023/04/20 07:24:52;;;;;;;9.82;2.00;;;;;;;;;;10312296;28;20072;-51
2023/04/20 07:29:52;;;;;;;6.97;1.92;;;;;;;;;;10327577;28;20601;-51
2023/04/20 07:34:53;;;;;;;9.10;2.08;;;;;;;;;;10323379;28;20504;-51
2023/04/20 07:39:53;;;;;;;4.03;2.00;;;;;;;;;;10336461;28;20490;-51
2023/04/20 07:44:54;;;;;;;4.32;2.42;;;;;;;;;;10318169;28;20030;-51
2023/04/20 07:49:56;;;;;;;4.40;1.80;;;;;;;;;;10312852;28;20023;-50
2023/04/20 07:54:58;;;;;;;4.35;2.00;;;;;;;;;;10320767;28;20046;-52
2023/04/20 07:59:58;;;;;;;4.97;1.95;;;;;;;;;;10320565;28;20112;-51
2023/04/20 08:05:01;;;;;;;5.13;2.33;;;;;;;;;;10309786;28;20089;-49
2023/04/20 08:10:02;;;;;;;8.25;1.98;;;;;;;;;;10320299;28;20441;-51
2023/04/20 08:15:05;;;;;;;5.75;2.05;;;;;;;;;;10310969;28;20445;-50
2023/04/20 08:20:06;;;;;;;1.92;1.70;;;;;;;;;;10303190;28;20045;-47
2023/04/20 08:25:07;;;;;;;5.50;2.22;;;;;;;;;;10315270;28;20046;-48
2023/04/20 08:30:08;;;;;;;4.90;2.08;;;;;;;;;;10309457;28;20049;-52
2023/04/20 08:35:09;;;;;;;6.47;1.73;;;;;;;;;;10315135;28;20026;-50
2023/04/20 08:40:10;;;;;;;4.22;1.92;;;;;;;;;;10326697;28;20050;-57
2023/04/20 08:45:12;;;;;;;4.40;2.30;;;;;;;;;;10323919;28;20037;-51
2023/04/20 08:50:12;;;;;;;3.58;1.98;;;;;;;;;;10329900;28;20034;-53
2023/04/20 08:55:19;;;;;;;3.75;2.40;;;;;;;;;;10321253;28;20596;-51
2023/04/20 09:00:20;;;;;;;8.00;2.55;;;;;;;;;;10315018;28;20018;-52
2023/04/20 09:05:28;;;;;;;7.40;2.05;;;;;;;;;;10321849;28;20042;-47
2023/04/20 09:10:40;;;;;;;6.53;2.20;;;;;;;;;;10328035;28;20166;-51
2023/04/20 09:15:41;;;;;;;5.70;2.30;;;;;;;;;;10316524;28;20039;-48
2023/04/20 09:20:42;;;;;;;3.60;2.10;;;;;;;;;;10326019;28;20438;-49
2023/04/20 09:25:51;;;;;;;4.78;2.47;;;;;;;;;;10318997;28;20398;-52
2023/04/20 09:30:51;;;;;;;3.17;1.98;;;;;;;;;;10309368;28;20134;-49
2023/04/20 09:35:52;;;;;;;5.30;2.25;;;;;;;;;;10320343;28;20037;-49
2023/04/20 09:40:53;;;;;;;3.47;2.15;;;;;;;;;;10321359;28;20089;-47
2023/04/20 09:45:55;;;;;;;5.70;2.63;;;;;;;;;;10306746;28;20040;-48
2023/04/20 09:50:56;;;;;;;9.63;2.53;;;;;;;;;;10318107;28;20054;-51
2023/04/20 09:55:58;;;;;;;10.38;2.58;;;;;;;;;;10318314;28;20434;-48
2023/04/20 10:01:00;;;;;;;6.03;2.67;;;;;;;;;;10314469;28;20126;-50
2023/04/20 10:06:01;;;;;;;5.00;2.58;;;;;;;;;;10319328;28;20111;-52
2023/04/20 10:11:02;;;;;;;7.53;2.60;;;;;;;;;;10322536;28;20025;-50
2023/04/20 10:16:02;;;;;;;5.68;2.47;;;;;;;;;;10319101;28;20024;-48
2023/04/20 10:21:08;;;;;;;8.73;2.42;;;;;;;;;;10313953;28;20023;-54
2023/04/20 10:26:08;;;;;;;8.07;2.65;;;;;;;;;;10313522;28;20035;-50
2023/04/20 10:31:14;;;;;;;5.15;2.42;;;;;;;;;;10310626;28;20023;-50
2023/04/20 10:36:35;;;;;;;6.15;2.70;;;;;;;;;;10325620;28;20030;-49
2023/04/20 10:41:37;;;;;;;3.90;2.53;;;;;;;;;;10326046;28;20037;-51
2023/04/20 10:46:38;;;;;;;6.35;2.47;;;;;;;;;;10323153;28;20497;-47
2023/04/20 10:51:48;;;;;;;4.93;2.47;;;;;;;;;;10315839;28;20038;-52
2023/04/20 10:56:51;;;;;;;8.63;2.60;;;;;;;;;;10316979;28;20371;-51
2023/04/20 11:01:52;;;;;;;5.18;3.10;;;;;;;;;;10315141;28;20038;-50
2023/04/20 11:06:54;;;;;;;6.32;3.50;;;;;;;;;;10306374;28;20030;-51
2023/04/20 11:12:03;;;;;;;4.65;2.90;;;;;;;;;;10320824;28;20078;-51
2023/04/20 11:17:05;;;;;;;3.90;3.08;;;;;;;;;;10310974;28;20933;-50
2023/04/20 11:22:05;;;;;;;5.85;2.85;;;;;;;;;;10309235;28;20062;-48
2023/04/20 11:27:06;;;;;;;3.78;2.92;;;;;;;;;;10323201;28;20486;-49
2023/04/20 11:32:09;;;;;;;4.45;2.42;;;;;;;;;;10312835;28;20057;-52
2023/04/20 11:37:12;;;;;;;3.92;2.72;;;;;;;;;;10321301;28;20576;-48
2023/04/20 11:42:13;;;;;;;2.83;2.40;;;;;;;;;;10315546;28;20433;-51
2023/04/20 11:47:13;;;;;;;3.55;2.65;;;;;;;;;;10324907;28;20034;-50
2023/04/20 11:52:15;;;;;;;3.95;2.88;;;;;;;;;;10315011;28;20038;-51
2023/04/20 11:57:15;;;;;;;6.75;3.00;;;;;;;;;;10305842;28;20050;-51
2023/04/20 12:02:16;;;;;;;4.82;2.80;;;;;;;;;;10321229;28;20046;-49
2023/04/20 12:07:16;;;;;;;3.72;2.97;;;;;;;;;;10317021;28;20534;-52
2023/04/20 12:12:17;;;;;;;4.57;2.72;;;;;;;;;;10321473;28;20065;-51
2023/04/20 12:17:18;;;;;;;4.72;2.90;;;;;;;;;;10324503;28;20474;-47
2023/04/20 12:22:18;;;;;;;5.75;3.05;;;;;;;;;;10330488;28;20027;-50
2023/04/20 12:27:19;;;;;;;6.07;3.20;;;;;;;;;;10322463;28;20052;-51
2023/04/20 12:32:19;;;;;;;6.55;3.20;;;;;;;;;;10324023;28;20060;-51
2023/04/20 12:37:20;;;;;;;5.82;2.95;;;;;;;;;;10328255;28;20037;-49
2023/04/20 12:42:21;;;;;;;5.10;2.90;;;;;;;;;;10330724;28;20418;-51
2023/04/20 12:47:21;;;;;;;6.45;2.95;;;;;;;;;;10328461;28;20049;-51
2023/04/20 12:52:22;;;;;;;4.47;2.83;;;;;;;;;;10336982;28;20053;-50
2023/04/20 12:57:22;;;;;;;5.45;2.63;;;;;;;;;;10329234;28;20378;-50
2023/04/20 13:02:23;;;;;;;9.23;3.10;;;;;;;;;;10328067;28;20029;-52
2023/04/20 13:07:24;;;;;;;5.85;3.22;;;;;;;;;;10327085;28;20093;-52
2023/04/20 13:12:25;;;;;;;5.55;3.05;;;;;;;;;;10326584;28;20048;-50
2023/04/20 13:17:25;;;;;;;7.55;4.18;;;;;;;;;;10325116;28;20026;-59
2023/04/20 13:22:26;;;;;;;12.18;4.90;;;;;;;;;;10316224;28;20031;-52
2023/04/20 13:27:26;;;;;;;7.97;4.68;;;;;;;;;;10319558;28;20037;-52
2023/04/20 13:32:27;;;;;;;9.68;4.95;;;;;;;;;;10311428;28;21157;-51
2023/04/20 13:37:28;;;;;;;8.60;5.40;;;;;;;;;;10320156;28;20022;-52
2023/04/20 13:42:28;;;;;;;6.88;5.07;;;;;;;;;;10321124;28;20029;-52
2023/04/20 13:47:29;;;;;;;11.90;5.63;;;;;;;;;;10316684;28;20023;-51
2023/04/20 13:52:30;;;;;;;9.45;5.57;;;;;;;;;;10318041;28;20050;-51
2023/04/20 13:57:31;;;;;;;7.63;6.05;;;;;;;;;;10317504;28;20040;-52
2023/04/20 14:02:32;;;;;;;13.73;7.60;;;;;;;;;;10314509;28;20035;-52
2023/04/20 14:07:32;;;;;;;11.98;7.07;;;;;;;;;;10318927;28;20026;-53
2023/04/20 14:12:33;;;;;;;9.40;7.40;;;;;;;;;;10321441;28;20022;-51
2023/04/20 14:17:33;;;;;;;10.43;8.02;;;;;;;;;;10303742;28;20042;-51
2023/04/20 14:22:35;;;;;;;15.82;8.48;;;;;;;;;;10312402;28;20029;-51
2023/04/20 14:27:36;;;;;;;13.23;7.75;;;;;;;;;;10313995;28;20426;-51
2023/04/20 14:32:36;;;;;;;10.23;7.82;;;;;;;;;;10321852;28;20022;-55
2023/04/20 14:37:37;;;;;;;12.63;7.60;;;;;;;;;;10321154;28;20022;-50
2023/04/20 14:42:37;;;;;;;10.13;8.07;;;;;;;;;;10324555;28;20367;-53
2023/04/20 14:47:39;;;;;;;9.73;7.88;;;;;;;;;;10323537;28;20442;-51
2023/04/20 14:52:40;;;;;;;11.73;7.82;;;;;;;;;;10316440;23;20082;-60
2023/04/20 14:57:40;;;;;;;12.82;7.63;;;;;;;;;;10295347;28;20047;-60
2023/04/20 15:02:41;;;;;;;10.52;7.53;;;;;;;;;;10276737;28;20082;-60
2023/04/20 15:07:44;;;;;;;11.57;7.45;;;;;;;;;;10253337;28;20039;-60
2023/04/20 15:12:46;;;;;;;14.10;7.25;;;;;;;;;;10258634;28;20105;-59
2023/04/20 15:17:47;;;;;;;13.70;6.47;;;;;;;;;;10243727;28;20386;-65
2023/04/20 15:22:48;;;;;;;10.02;7.05;;;;;;;;;;10237192;28;20303;-60
2023/04/20 15:27:48;;;;;;;9.48;6.53;;;;;;;;;;10255954;28;20027;-60
2023/04/20 15:32:49;;;;;;;13.90;6.13;;;;;;;;;;10237141;28;20094;-60
2023/04/20 15:37:49;;;;;;;8.65;6.15;;;;;;;;;;10240878;28;20031;-59
2023/04/20 15:42:50;;;;;;;13.88;6.22;;;;;;;;;;10247373;28;20055;-60
2023/04/20 15:47:51;;;;;;;8.38;6.20;;;;;;;;;;10235790;28;20026;-60
2023/04/20 15:52:53;;;;;;;13.52;6.15;;;;;;;;;;10247540;28;20050;-65
2023/04/20 15:57:56;;;;;;;8.52;6.15;;;;;;;;;;10246999;28;20446;-60
2023/04/20 16:03:00;;;;;;;11.45;5.88;;;;;;;;;;10247332;28;20110;-66
2023/04/20 16:08:00;;;;;;;11.05;5.65;;;;;;;;;;10260340;28;20031;-59
2023/04/20 16:13:02;;;;;;;9.75;6.00;;;;;;;;;;10261846;28;20035;-60
2023/04/20 16:18:04;;;;;;;8.32;5.57;;;;;;;;;;10250663;28;20055;-60
2023/04/20 16:23:04;;;;;;;9.00;5.05;;;;;;;;;;10247672;28;20051;-60
2023/04/20 16:28:05;;;;;;;7.90;5.28;;;;;;;;;;10237675;28;20031;-60
2023/04/20 16:33:06;;;;;;;9.80;4.40;;;;;;;;;;10255236;28;20043;-61
2023/04/20 16:38:07;;;;;;;6.03;4.70;;;;;;;;;;10235830;28;20031;-73
2023/04/20 16:43:08;;;;;;;7.50;5.15;;;;;;;;;;10250428;28;20026;-60
2023/04/20 16:48:08;;;;;;;6.97;4.80;;;;;;;;;;10254654;28;20494;-60
2023/04/20 16:53:09;;;;;;;6.97;5.38;;;;;;;;;;10245271;28;20047;-60
2023/04/20 16:58:10;;;;;;;10.35;4.78;;;;;;;;;;10247405;28;20579;-61
2023/04/20 17:03:12;;;;;;;8.10;5.13;;;;;;;;;;10253390;28;20089;-60
2023/04/20 17:08:12;;;;;;;10.20;5.13;;;;;;;;;;10251079;28;20051;-59
2023/04/20 17:13:13;;;;;;;5.68;4.45;;;;;;;;;;10248637;28;20038;-72
2023/04/20 17:18:14;;;;;;;9.45;5.00;;;;;;;;;;10254084;28;20028;-57
2023/04/20 17:23:18;;;;;;;6.40;4.72;;;;;;;;;;10254934;28;20069;-58
2023/04/20 17:28:18;;;;;;;7.38;5.15;;;;;;;;;;10249782;28;20031;-57
2023/04/20 17:33:19;;;;;;;7.45;4.85;;;;;;;;;;10260760;28;20547;-59
2023/04/20 17:38:20;;;;;;;8.15;6.13;;;;;;;;;;10250593;28;20042;-59
2023/04/20 17:43:20;;;;;;;6.18;5.35;;;;;;;;;;10260221;28;20027;-53
2023/04/20 17:48:21;;;;;;;8.65;5.20;;;;;;;;;;10270245;28;20077;-68
2023/04/20 17:53:21;;;;;;;9.68;5.40;;;;;;;;;;10241536;28;20043;-61
2023/04/20 17:58:23;;;;;;;6.97;5.63;;;;;;;;;;10250213;28;20044;-60
2023/04/20 18:03:24;;;;;;;6.88;5.32;;;;;;;;;;10253721;28;20030;-71
2023/04/20 18:08:25;;;;;;;10.80;6.55;;;;;;;;;;10256306;28;20400;-68
2023/04/20 18:13:25;;;;;;;8.18;6.65;;;;;;;;;;10255794;28;20087;-74
2023/04/20 18:18:26;;;;;;;9.43;6.80;;;;;;;;;;10255054;28;20045;-75
2023/04/20 18:23:28;;;;;;;8.70;6.45;;;;;;;;;;10242507;28;20043;-64
2023/04/20 18:28:29;;;;;;;16.52;6.20;;;;;;;;;;10247259;28;20039;-68
2023/04/20 18:33:30;;;;;;;9.43;6.13;;;;;;;;;;10246441;28;20476;-65
2023/04/20 18:38:31;;;;;;;10.57;6.05;;;;;;;;;;10237030;28;20039;-68
2023/04/20 18:43:32;;;;;;;7.93;5.55;;;;;;;;;;10247632;28;20114;-66
2023/04/20 18:48:32;;;;;;;10.57;5.55;;;;;;;;;;10244328;28;20026;-65
2023/04/20 18:53:33;;;;;;;12.43;5.20;;;;;;;;;;10238275;28;20047;-66
2023/04/20 18:58:34;;;;;;;10.63;6.57;;;;;;;;;;10248271;28;20084;-59
2023/04/20 19:03:34;;;;;;;10.98;6.63;;;;;;;;;;10247254;28;20534;-71
2023/04/20 19:08:35;;;;;;;7.00;6.30;;;;;;;;;;10262897;28;20027;-61
2023/04/20 19:13:36;;;;;;;10.30;6.63;;;;;;;;;;10246549;28;20038;-71
2023/04/20 19:18:37;;;;;;;7.47;5.63;;;;;;;;;;10248746;28;20052;-72
2023/04/20 19:23:38;;;;;;;9.45;5.97;;;;;;;;;;10241316;28;20043;-70
2023/04/20 19:28:38;;;;;;;9.93;5.85;;;;;;;;;;10256405;28;20023;-72
2023/04/20 19:33:39;;;;;;;6.22;5.25;;;;;;;;;;10258881;28;20132;-72
2023/04/20 19:38:40;;;;;;;5.93;5.07;;;;;;;;;;10238984;28;20035;-70
2023/04/20 19:43:41;;;;;;;7.22;5.35;;;;;;;;;;10249407;28;20043;-70
2023/04/20 19:48:41;;;;;;;12.68;5.82;;;;;;;;;;10237332;28;20039;-71
2023/04/20 19:53:42;;;;;;;6.85;5.32;;;;;;;;;;10238388;28;20047;-72
2023/04/20 19:58:42;;;;;;;6.15;5.00;;;;;;;;;;10240032;28;20039;-56
2023/04/20 20:03:43;;;;;;;7.40;5.20;;;;;;;;;;10263878;28;20027;-71
2023/04/20 20:08:44;;;;;;;4.65;4.20;;;;;;;;;;10248555;28;20066;-69
2023/04/20 20:13:45;;;;;;;7.80;4.60;;;;;;;;;;10237916;28;20035;-56
2023/04/20 20:18:46;;;;;;;4.85;4.35;;;;;;;;;;10231756;28;20031;-56
2023/04/20 20:23:47;;;;;;;7.32;4.55;;;;;;;;;;10243841;28;20071;-56
2023/04/20 20:28:48;;;;;;;7.68;4.50;;;;;;;;;;10243146;28;20404;-56
2023/04/20 20:33:48;;;;;;;5.93;4.10;;;;;;;;;;10262320;28;20470;-54
2023/04/20 20:38:49;;;;;;;6.65;4.00;;;;;;;;;;10246119;28;20112;-55
2023/04/20 20:43:51;;;;;;;4.57;4.03;;;;;;;;;;10250213;28;20545;-71
2023/04/20 20:48:52;;;;;;;8.73;3.75;;;;;;;;;;10249262;28;20031;-70
2023/04/20 20:53:52;;;;;;;4.05;3.45;;;;;;;;;;10252138;28;20380;-71
2023/04/20 20:58:53;;;;;;;11.57;4.68;;;;;;;;;;10248611;28;20035;-70
2023/04/20 21:03:54;;;;;;;8.98;3.88;;;;;;;;;;10254917;28;20059;-74
2023/04/20 21:08:54;;;;;;;5.20;4.38;;;;;;;;;;10262729;28;20030;-73
2023/04/20 21:14:00;;;;;;;5.10;3.67;;;;;;;;;;10248004;28;20368;-71
2023/04/20 21:19:00;;;;;;;7.93;3.63;;;;;;;;;;10248406;28;20031;-70
2023/04/20 21:24:01;;;;;;;4.60;3.90;;;;;;;;;;10249681;28;20390;-71
2023/04/20 21:29:02;;;;;;;6.10;4.30;;;;;;;;;;10248188;28;20384;-72
2023/04/20 21:34:03;;;;;;;6.10;3.78;;;;;;;;;;10240112;28;20170;-70
2023/04/20 21:39:03;;;;;;;4.55;3.78;;;;;;;;;;10262024;28;20152;-61
2023/04/20 21:44:04;;;;;;;3.88;3.20;;;;;;;;;;10259395;28;20027;-58
2023/04/20 21:49:04;;;;;;;4.60;3.75;;;;;;;;;;10258877;28;20483;-56
2023/04/20 21:54:05;;;;;;;4.30;3.50;;;;;;;;;;10261130;28;20093;-58
2023/04/20 21:59:06;;;;;;;4.30;3.38;;;;;;;;;;10237287;28;20027;-57
2023/04/20 22:04:08;;;;;;;5.53;3.67;;;;;;;;;;10246417;28;20037;-58
2023/04/20 22:09:08;;;;;;;5.82;2.95;;;;;;;;;;10250403;28;20030;-69
2023/04/20 22:14:09;;;;;;;5.15;2.92;;;;;;;;;;10242580;28;20031;-58
2023/04/20 22:19:10;;;;;;;8.25;3.33;;;;;;;;;;10243651;28;20043;-59
2023/04/20 22:24:11;;;;;;;3.28;2.85;;;;;;;;;;10250242;28;20043;-53
2023/04/20 22:29:11;;;;;;;6.40;3.17;;;;;;;;;;10253609;28;20387;-56
2023/04/20 22:34:12;;;;;;;3.20;2.90;;;;;;;;;;10249291;28;20471;-57
2023/04/20 22:39:12;;;;;;;5.50;2.97;;;;;;;;;;10250255;28;20036;-59
2023/04/20 22:44:13;;;;;;;3.40;3.10;;;;;;;;;;10243129;28;20035;-72
2023/04/20 22:49:14;;;;;;;5.07;3.33;;;;;;;;;;10245386;28;20042;-72
2023/04/20 22:54:14;;;;;;;4.35;3.03;;;;;;;;;;10241417;28;20043;-72
2023/04/20 22:59:15;;;;;;;3.50;3.05;;;;;;;;;;10250109;28;20039;-75
2023/04/20 23:04:16;;;;;;;7.57;3.63;;;;;;;;;;10253577;28;20035;-73
2023/04/20 23:09:19;;;;;;;5.88;3.53;;;;;;;;;;10246037;28;20368;-73
2023/04/20 23:14:21;;;;;;;3.10;2.80;;;;;;;;;;10246561;28;20031;-65
2023/04/20 23:19:21;;;;;;;3.45;2.88;;;;;;;;;;10245620;28;20035;-71
2023/04/20 23:24:22;;;;;;;7.88;2.75;;;;;;;;;;10232534;28;20487;-73
2023/04/20 23:29:22;;;;;;;4.55;3.30;;;;;;;;;;10248705;28;20027;-72
2023/04/20 23:34:23;;;;;;;5.45;3.03;;;;;;;;;;10248611;28;20036;-71
2023/04/20 23:39:24;;;;;;;5.32;3.20;;;;;;;;;;10246676;28;20019;-57
2023/04/20 23:44:24;;;;;;;3.28;2.95;;;;;;;;;;10239084;28;20186;-69
2023/04/20 23:49:25;;;;;;;4.63;3.33;;;;;;;;;;10246875;28;20464;-61
2023/04/20 23:54:26;;;;;;;5.78;3.30;;;;;;;;;;10244711;28;20039;-66
2023/04/20 23:59:26;;;;;;;4.10;3.05;;;;;;;;;;10240700;28;20183;-66
